Time;durP1;ratioP1;P1;durP2;ratioP2;P2;SDS_P1;SDS_P2;PMS_P1;PMS_P2;Temp;Humidity;BMP_temperature;BMP_pressure;BME280_temperature;BME280_humidity;BME280_pressure;Samples;Min_cycle;Max_cycle;Signal;HPM_P1;HPM_P2
2023/01/19 00:01:21;;;;;;;;;15.33;13.33;;;;;6.72;68.56;-15443.22;4965365;28;45545;-88
2023/01/19 00:03:46;;;;;;;;;17.00;11.67;;;;;6.81;69.03;-15115.84;4965428;28;45648;-88
2023/01/19 00:06:12;;;;;;;;;12.00;10.33;;;;;7.04;68.63;-15449.72;4973973;28;45911;-88
2023/01/19 00:08:37;;;;;;;;;14.00;12.33;;;;;6.80;69.04;-15444.88;4971356;28;45513;-87
2023/01/19 00:11:03;;;;;;;;;10.67;10.00;;;;;6.03;68.85;-15429.44;4972170;28;45472;-88
2023/01/19 00:13:29;;;;;;;;;12.00;9.67;;;;;7.02;69.26;-15449.28;4963669;28;45430;-89
2023/01/19 00:15:54;;;;;;;;;12.00;11.00;;;;;6.40;68.88;-15436.75;4952533;28;47996;-88
2023/01/19 00:18:20;;;;;;;;;11.67;10.67;;;;;6.87;68.91;-15446.31;4954974;28;45692;-88
2023/01/19 00:20:46;;;;;;;;;12.00;11.00;;;;;7.03;69.38;-15449.41;4953997;28;45791;-87
2023/01/19 00:23:12;;;;;;;;;12.00;11.33;;;;;6.51;69.12;-15439.09;4942906;28;45462;-88
2023/01/19 00:25:42;;;;;;;;;12.33;10.00;;;;;7.03;68.71;-15449.50;4973543;28;46413;-88
2023/01/19 00:28:13;;;;;;;;;11.67;10.67;;;;;7.02;69.02;-15119.84;4971518;28;45413;-87
2023/01/19 00:30:39;;;;;;;;;13.00;10.00;;;;;6.96;68.94;-15118.75;4955276;28;45772;-88
2023/01/19 00:33:04;;;;;;;;;12.00;12.00;;;;;6.49;69.04;-15109.53;4962172;28;45404;-87
2023/01/19 00:35:30;;;;;;;;;11.67;11.33;;;;;6.93;69.36;-15118.16;5001227;28;46427;-87
2023/01/19 00:37:57;;;;;;;;;9.33;9.33;;;;;6.94;69.25;-15447.75;4948709;28;45803;-88
2023/01/19 00:40:22;;;;;;;;;13.67;9.33;;;;;6.94;68.90;-15118.34;4956144;28;45497;-91
2023/01/19 00:42:47;;;;;;;;;9.67;8.67;;;;;6.43;69.03;-15108.34;4955687;28;45582;-90
2023/01/19 00:45:17;;;;;;;;;12.00;10.00;;;;;6.58;68.76;-15111.25;4972069;28;45605;-91
2023/01/19 00:47:43;;;;;;;;;6.00;6.00;;;;;6.43;68.87;-15108.34;4955965;28;47747;-90
2023/01/19 00:50:10;;;;;;;;;11.33;10.33;;;;;6.70;68.77;-15113.75;4972642;28;45509;-90
2023/01/19 00:52:36;;;;;;;;;12.00;10.00;;;;;6.40;68.96;-15107.72;4986051;28;45409;-90
2023/01/19 00:55:02;;;;;;;;;12.33;10.67;;;;;6.18;68.97;-14774.50;4964888;28;46562;-91
2023/01/19 00:57:28;;;;;;;;;9.00;9.00;;;;;6.41;69.14;-14778.88;4970998;28;45470;-90
2023/01/19 00:59:53;;;;;;;;;9.00;8.00;;;;;6.47;68.64;-14780.06;4949973;28;45378;-90
2023/01/19 01:02:19;;;;;;;;;13.00;9.00;;;;;6.58;68.88;-14782.22;4945104;28;45351;-91
2023/01/19 01:04:44;;;;;;;;;13.33;10.00;;;;;6.34;69.22;-15106.63;4953786;28;47662;-91
2023/01/19 01:07:09;;;;;;;;;11.00;11.00;;;;;6.57;69.16;-14782.00;4956267;28;45432;-91
2023/01/19 01:09:35;;;;;;;;;14.00;11.00;;;;;6.18;69.06;-14774.59;4960792;28;45880;-91
2023/01/19 01:12:00;;;;;;;;;11.00;10.00;;;;;5.68;69.57;-15093.69;4973493;28;45300;-91
2023/01/19 01:14:26;;;;;;;;;13.33;7.33;;;;;6.63;69.32;-14783.19;4965911;28;45402;-91
2023/01/19 01:16:51;;;;;;;;;10.33;9.00;;;;;6.12;69.47;-14773.44;4973593;28;45568;-90
2023/01/19 01:19:17;;;;;;;;;10.67;9.33;;;;;6.37;69.13;-14778.09;4954218;28;46052;-91
2023/01/19 01:21:42;;;;;;;;;9.67;9.67;;;;;5.61;69.36;-14763.75;4947534;28;45433;-91
2023/01/19 01:24:09;;;;;;;;;10.00;10.00;;;;;6.39;69.28;-15107.63;4972348;28;45434;-91
2023/01/19 01:26:34;;;;;;;;;13.33;11.00;;;;;5.56;69.65;-15091.38;4950678;28;45422;-91
2023/01/19 01:29:00;;;;;;;;;9.33;9.00;;;;;6.21;69.38;-15104.03;4960145;28;45499;-90
2023/01/19 01:31:26;;;;;;;;;9.00;9.00;;;;;6.24;69.33;-14775.78;4955147;28;45541;-91
2023/01/19 01:33:51;;;;;;;;;11.33;9.00;;;;;6.08;69.28;-14772.75;4973845;28;46116;-91
2023/01/19 01:36:19;;;;;;;;;8.33;7.00;;;;;5.76;68.79;-14766.50;4945796;28;45415;-91
2023/01/19 01:38:45;;;;;;;;;11.00;10.33;;;;;6.56;68.86;-14781.81;4969000;28;45532;-90
2023/01/19 01:41:10;;;;;;;;;12.33;10.00;;;;;5.80;68.90;-14767.38;4957457;28;45512;-91
2023/01/19 01:43:46;;;;;;;;;14.67;10.33;;;;;6.58;69.39;-15111.34;4972420;28;47510;-91
2023/01/19 01:46:14;;;;;;;;;9.67;9.67;;;;;6.34;68.67;-15106.63;4964132;28;45556;-91
2023/01/19 01:48:48;;;;;;;;;16.00;12.33;;;;;6.50;69.19;-15109.84;4950713;28;45668;-91
2023/01/19 01:51:23;;;;;;;;;11.67;10.00;;;;;6.30;69.29;-15105.81;4971852;28;45766;-91
2023/01/19 01:53:59;;;;;;;;;13.67;13.00;;;;;6.10;69.55;-15101.91;4957857;28;48247;-91
2023/01/19 01:56:38;;;;;;;;;8.67;8.67;;;;;6.40;68.93;-14778.78;5018375;28;45596;-90
2023/01/19 01:59:07;;;;;;;;;9.33;9.33;;;;;5.64;68.46;-14764.25;4963940;28;45396;-90
2023/01/19 02:04:17;;;;;;;;;12.33;12.00;;;;;6.26;68.90;-14776.16;4975322;28;45585;-90
2023/01/19 02:14:59;;;;;;;;;11.00;9.67;;;;;5.89;68.35;-14440.31;4975077;28;45911;-91
2023/01/19 02:17:25;;;;;;;;;15.67;13.00;;;;;6.17;68.38;-14445.38;4956421;28;45628;-91
2023/01/19 02:19:51;;;;;;;;;15.00;12.67;;;;;6.52;68.58;-14452.00;4950925;28;45403;-90
2023/01/19 02:22:29;;;;;;;;;11.67;9.33;;;;;5.90;68.71;-14440.53;4985517;28;45403;-91
2023/01/19 02:24:55;;;;;;;;;10.00;10.00;;;;;6.19;69.09;-14445.84;5005655;27;46378;-91
2023/01/19 02:27:20;;;;;;;;;13.33;11.67;;;;;6.19;68.70;-14774.78;4972029;28;45504;-90
2023/01/19 02:29:46;;;;;;;;;11.67;11.00;;;;;6.08;69.15;-14443.75;4955798;28;45623;-90
2023/01/19 02:32:12;;;;;;;;;12.00;9.67;;;;;6.54;69.18;-14452.38;4954593;28;45636;-90
2023/01/19 02:34:37;;;;;;;;;13.00;10.00;;;;;5.96;68.68;-14441.56;4968658;28;45577;-90
2023/01/19 02:37:13;;;;;;;;;10.00;10.00;;;;;5.96;68.53;-14112.63;4994556;28;45472;-90
2023/01/19 02:39:42;;;;;;;;;16.67;13.00;;;;;6.11;68.79;-14115.47;5000763;28;45584;-91
2023/01/19 02:42:36;;;;;;;;;12.00;9.00;;;;;6.40;68.60;-13791.50;4987953;27;45450;-91
2023/01/19 02:45:05;;;;;;;;;11.33;10.00;;;;;6.27;68.06;-13789.19;4973862;28;45432;-91
2023/01/19 02:47:48;;;;;;;;;13.00;11.00;;;;;5.92;68.43;-13783.19;4963992;28;45980;-91
2023/01/19 02:50:40;;;;;;;;;10.33;10.33;;;;;6.31;68.71;-13790.00;4939098;28;45360;-91
2023/01/19 02:53:35;;;;;;;;;12.33;10.00;;;;;6.01;68.41;-13784.63;5042109;27;45766;-91
2023/01/19 02:56:09;;;;;;;;;12.33;10.33;;;;;5.58;68.88;-14105.78;4957353;28;47398;-91
2023/01/19 02:58:47;;;;;;;;;9.67;9.67;;;;;6.39;69.28;-14120.34;4951970;28;45490;-91
2023/01/19 03:01:27;;;;;;;;;12.00;10.00;;;;;6.40;69.21;-14120.63;4987937;27;45618;-91
2023/01/19 03:04:04;;;;;;;;;11.33;11.00;;;;;6.42;68.89;-14120.91;4957867;28;45436;-91
2023/01/19 03:06:47;;;;;;;;;16.00;11.00;;;;;5.92;68.87;-14440.91;4963294;28;47354;-91
2023/01/19 03:09:56;;;;;;;;;15.67;12.00;;;;;6.01;68.94;-14442.50;4956681;28;45459;-90
2023/01/19 03:12:45;;;;;;;;;14.67;13.33;;;;;6.04;69.23;-14443.09;4993615;28;46497;-91
2023/01/19 03:15:22;;;;;;;;;12.67;12.00;;;;;5.95;69.21;-14441.28;4988656;28;45830;-91
2023/01/19 03:17:50;;;;;;;;;17.00;13.33;;;;;6.30;69.15;-14447.94;4971531;28;46024;-92
2023/01/19 03:20:22;;;;;;;;;9.00;9.00;;;;;6.33;69.30;-14119.34;4968850;28;45545;-91
2023/01/19 03:22:52;;;;;;;;;13.33;11.00;;;;;6.16;69.01;-14445.16;4993348;28;45451;-91
2023/01/19 03:25:22;;;;;;;;;18.00;14.00;;;;;5.89;68.93;-14440.31;4975045;28;45510;-92
2023/01/19 03:27:50;;;;;;;;;17.00;12.00;;;;;6.19;69.33;-14445.75;4977418;28;47530;-91
2023/01/19 03:30:23;;;;;;;;;17.67;12.67;;;;;6.44;68.32;-14450.47;4983069;28;45564;-91
2023/01/19 03:33:15;;;;;;;;;13.33;13.33;;;;;5.78;69.16;-14109.47;4980624;28;45571;-92
2023/01/19 03:35:48;;;;;;;;;15.67;13.67;;;;;5.85;69.04;-14439.56;4982225;28;45442;-91
2023/01/19 03:38:18;;;;;;;;;19.33;13.33;;;;;5.96;69.13;-14441.56;4976924;28;47561;-91
2023/01/19 03:40:44;;;;;;;;;13.67;9.67;;;;;6.35;69.15;-14119.72;4985224;28;45611;-91
2023/01/19 03:43:11;;;;;;;;;17.33;14.33;;;;;5.75;69.17;-14437.56;4976404;28;45535;-91
2023/01/19 03:45:38;;;;;;;;;16.33;14.33;;;;;6.36;69.27;-14448.88;4980366;28;45593;-91
2023/01/19 03:48:05;;;;;;;;;15.33;11.00;;;;;5.72;69.38;-14437.19;4983529;28;48380;-92
2023/01/19 03:50:31;;;;;;;;;15.33;14.67;;;;;5.94;69.36;-14441.19;4972000;27;45373;-91
2023/01/19 03:53:16;;;;;;;;;18.67;13.67;;;;;6.34;69.41;-14448.69;4954813;28;45521;-90
2023/01/19 03:55:46;;;;;;;;;16.00;13.67;;;;;6.12;68.55;-14115.56;4956758;28;45719;-91
2023/01/19 03:58:12;;;;;;;;;17.67;14.00;;;;;6.32;68.92;-14119.16;4956508;28;47470;-90
2023/01/19 04:00:37;;;;;;;;;14.67;13.00;;;;;5.89;69.00;-14111.50;4974067;28;45436;-91
2023/01/19 04:03:04;;;;;;;;;15.00;14.00;;;;;5.91;69.17;-14111.78;4957398;28;45437;-91
2023/01/19 04:05:30;;;;;;;;;11.67;10.67;;;;;5.39;69.24;-14102.47;5009287;28;45721;-91
2023/01/19 04:07:55;;;;;;;;;14.00;12.33;;;;;5.67;68.67;-14107.53;4971249;28;46206;-91
2023/01/19 04:10:21;;;;;;;;;17.00;11.00;;;;;6.15;69.21;-14116.03;4946443;28;45523;-91
2023/01/19 04:12:47;;;;;;;;;11.33;8.00;;;;;6.04;68.94;-14114.19;4971904;28;45599;-91
2023/01/19 04:15:13;;;;;;;;;12.67;11.33;;;;;6.26;68.93;-14118.16;4968284;28;45535;-91
2023/01/19 04:17:39;;;;;;;;;13.00;11.00;;;;;6.03;69.02;-14114.00;4968504;28;45650;-91
2023/01/19 04:20:06;;;;;;;;;16.67;9.67;;;;;6.29;69.06;-14118.59;4969606;28;45688;-90
2023/01/19 04:22:31;;;;;;;;;14.33;14.33;;;;;5.77;69.06;-14109.19;5004111;28;45426;-91
2023/01/19 04:24:57;;;;;;;;;14.67;11.00;;;;;5.53;69.04;-14104.88;4984940;27;45396;-91
2023/01/19 04:27:22;;;;;;;;;13.00;12.00;;;;;5.66;69.24;-14107.34;4959944;28;46447;-91
2023/01/19 04:29:48;;;;;;;;;15.00;12.00;;;;;5.58;69.37;-14105.78;4960037;28;45525;-90
2023/01/19 04:32:13;;;;;;;;;16.67;12.00;;;;;5.55;69.03;-14433.97;4968004;28;45402;-90
2023/01/19 04:34:39;;;;;;;;;13.33;11.00;;;;;5.98;69.23;-14112.97;4946353;28;45849;-90
2023/01/19 04:37:05;;;;;;;;;11.67;10.67;;;;;5.97;69.48;-14441.66;4970810;28;47361;-91
2023/01/19 04:39:30;;;;;;;;;8.67;8.67;;;;;6.09;69.11;-14115.09;4955832;28;45461;-88
2023/01/19 04:41:56;;;;;;;;;11.00;9.67;;;;;5.82;69.04;-14110.13;4950850;28;45539;-88
2023/01/19 04:44:22;;;;;;;;;16.00;11.67;;;;;5.56;69.42;-13776.75;4965456;28;45769;-88
2023/01/19 04:46:47;;;;;;;;;16.33;14.67;;;;;6.15;69.45;-14116.13;4971620;28;45480;-88
2023/01/19 04:49:14;;;;;;;;;9.00;6.33;;;;;6.14;69.03;-14115.94;4955109;28;45726;-87
2023/01/19 04:51:39;;;;;;;;;11.67;11.33;;;;;5.18;69.19;-13770.13;4972649;28;45441;-89
2023/01/19 04:54:07;;;;;;;;;16.33;13.67;;;;;5.70;69.17;-14108.00;4955430;28;45637;-87
2023/01/19 04:56:33;;;;;;;;;11.33;11.00;;;;;5.40;69.28;-14102.56;4935926;28;46111;-88
2023/01/19 04:58:58;;;;;;;;;10.33;10.00;;;;;5.88;69.72;-13782.47;4970245;28;45679;-88
2023/01/19 05:01:23;;;;;;;;;12.67;9.00;;;;;5.66;69.22;-14107.25;4972027;28;45720;-88
2023/01/19 05:03:49;;;;;;;;;15.00;12.00;;;;;5.99;69.35;-13784.34;4955151;28;45424;-87
2023/01/19 05:06:14;;;;;;;;;16.33;12.00;;;;;5.75;69.32;-14108.81;4959267;28;48102;-87
2023/01/19 05:08:40;;;;;;;;;16.33;12.67;;;;;5.36;69.60;-13773.25;4975689;28;45459;-87
2023/01/19 05:11:05;;;;;;;;;11.00;9.67;;;;;5.96;69.65;-13783.72;4957730;28;45374;-87
2023/01/19 05:13:32;;;;;;;;;11.67;11.67;;;;;5.65;69.27;-13778.34;4969853;28;45608;-88
2023/01/19 05:15:57;;;;;;;;;19.67;15.00;;;;;4.97;69.11;-13766.44;4974479;28;45500;-88
2023/01/19 05:18:22;;;;;;;;;4.00;3.00;;;;;4.83;69.29;-13764.00;4972130;28;45438;-88
2023/01/19 05:20:48;;;;;;;;;14.67;10.00;;;;;5.47;69.51;-13775.31;4975247;28;45814;-88
2023/01/19 05:23:13;;;;;;;;;16.67;13.67;;;;;5.69;69.57;-13779.06;4975565;28;45476;-89
2023/01/19 05:25:38;;;;;;;;;14.00;10.00;;;;;5.71;69.13;-13779.50;4974600;28;45456;-88
2023/01/19 05:28:04;;;;;;;;;12.00;10.33;;;;;5.34;69.70;-13772.88;4972300;28;45879;-89
2023/01/19 05:30:30;;;;;;;;;5.33;5.33;;;;;5.04;69.58;-13767.78;4967849;28;45571;-88
2023/01/19 05:32:55;;;;;;;;;14.33;10.67;;;;;4.88;69.69;-13764.91;4974833;28;45442;-88
2023/01/19 05:35:20;;;;;;;;;15.00;11.67;;;;;5.78;69.44;-13451.78;4969474;28;45721;-87
2023/01/19 05:37:46;;;;;;;;;11.33;10.67;;;;;5.39;69.47;-13773.88;4963989;28;45513;-88
2023/01/19 05:40:11;;;;;;;;;12.67;10.00;;;;;5.35;69.72;-13773.16;4970767;28;45810;-87
2023/01/19 05:42:37;;;;;;;;;9.67;8.33;;;;;4.91;69.49;-13765.44;4969453;28;45524;-88
2023/01/19 05:45:04;;;;;;;;;10.00;10.00;;;;;5.73;69.96;-13779.78;4953940;28;47537;-88
2023/01/19 05:47:30;;;;;;;;;15.00;13.33;;;;;5.12;69.51;-13769.13;4949467;28;45454;-88
2023/01/19 05:49:56;;;;;;;;;12.00;7.00;;;;;5.10;69.84;-13768.75;4972952;28;45461;-86
2023/01/19 05:52:21;;;;;;;;;11.33;9.33;;;;;5.26;69.47;-13771.63;4963511;28;45371;-87
2023/01/19 05:54:47;;;;;;;;;14.00;12.00;;;;;5.70;69.82;-13779.25;4972969;28;46398;-88
2023/01/19 05:57:13;;;;;;;;;11.33;10.33;;;;;5.49;69.49;-13775.66;4948823;28;45790;-87
2023/01/19 05:59:39;;;;;;;;;10.67;9.33;;;;;4.93;69.88;-13765.72;4966195;28;45525;-87
2023/01/19 06:02:04;;;;;;;;;11.00;9.00;;;;;5.45;69.48;-13774.94;4963123;28;46434;-87
2023/01/19 06:04:30;;;;;;;;;18.67;8.33;;;;;5.53;69.66;-13447.59;5030811;28;45748;-88
2023/01/19 06:06:55;;;;;;;;;10.00;9.00;;;;;4.76;69.66;-13434.47;4972321;28;45852;-88
2023/01/19 06:09:20;;;;;;;;;10.33;7.33;;;;;5.71;69.71;-13779.50;4974481;28;45897;-88
2023/01/19 06:11:46;;;;;;;;;8.00;8.00;;;;;5.67;69.65;-13778.81;4974971;28;45531;-87
2023/01/19 06:14:12;;;;;;;;;8.33;8.33;;;;;5.69;69.87;-13779.06;4952613;28;47947;-87
2023/01/19 06:16:37;;;;;;;;;10.00;10.00;;;;;5.34;70.14;-13772.97;4951978;28;45881;-88
2023/01/19 06:19:03;;;;;;;;;10.67;9.00;;;;;5.71;70.07;-13779.50;4981456;28;45539;-88
2023/01/19 06:21:28;;;;;;;;;3.67;3.67;;;;;5.01;69.92;-13767.25;5006595;28;45507;-89
2023/01/19 06:23:54;;;;;;;;;8.00;8.00;;;;;4.74;69.90;-13762.41;4996042;28;45540;-89
2023/01/19 06:26:19;;;;;;;;;9.00;8.00;;;;;4.82;69.92;-13763.84;4974481;28;46722;-88
2023/01/19 06:28:45;;;;;;;;;9.00;7.00;;;;;5.71;70.18;-13779.50;5017750;28;45640;-88
2023/01/19 06:31:10;;;;;;;;;10.33;7.67;;;;;5.52;69.86;-13776.03;5023808;28;45532;-88
2023/01/19 06:33:36;;;;;;;;;7.67;7.67;;;;;5.45;69.61;-13774.94;4964072;28;48408;-88
2023/01/19 06:36:02;;;;;;;;;10.33;7.00;;;;;4.79;69.83;-13763.28;4974059;28;45425;-88
2023/01/19 06:38:27;;;;;;;;;10.00;10.00;;;;;5.21;69.39;-13770.66;4973191;28;45570;-88
2023/01/19 06:40:57;;;;;;;;;5.67;5.33;;;;;4.78;69.78;-13763.13;4975580;28;45367;-91
2023/01/19 06:43:22;;;;;;;;;8.67;8.67;;;;;5.34;69.98;-14101.44;4964812;28;47359;-91
2023/01/19 06:45:49;;;;;;;;;8.67;8.00;;;;;5.10;69.82;-14097.19;4974054;28;46116;-92
2023/01/19 06:48:14;;;;;;;;;9.67;4.67;;;;;4.94;69.50;-13765.91;4975285;28;45555;-92
2023/01/19 06:50:40;;;;;;;;;6.33;6.33;;;;;5.73;69.90;-13779.78;4956394;28;45416;-91
2023/01/19 06:53:05;;;;;;;;;7.00;3.33;;;;;5.74;69.76;-13779.97;4966118;28;46077;-91
2023/01/19 06:55:31;;;;;;;;;9.33;8.00;;;;;5.60;69.98;-13777.53;4975294;28;45350;-91
2023/01/19 06:58:00;;;;;;;;;7.33;7.00;;;;;5.62;69.57;-13777.81;4975180;28;45455;-90
2023/01/19 07:00:25;;;;;;;;;8.00;5.00;;;;;5.79;69.68;-13780.78;4983389;28;45599;-91
2023/01/19 07:02:51;;;;;;;;;12.00;11.67;;;;;5.79;69.45;-13780.78;4977137;28;46192;-91
2023/01/19 07:05:16;;;;;;;;;12.67;9.67;;;;;5.79;69.69;-13780.78;4975476;28;45434;-91
2023/01/19 07:07:43;;;;;;;;;11.00;8.33;;;;;5.58;69.26;-13777.19;4975248;28;45696;-91
2023/01/19 07:10:11;;;;;;;;;7.00;7.00;;;;;5.80;69.68;-13781.03;4973287;28;45410;-92
2023/01/19 07:12:37;;;;;;;;;7.00;7.00;;;;;5.81;69.27;-13781.22;4981312;28;46080;-90
2023/01/19 07:15:03;;;;;;;;;12.33;11.67;;;;;5.65;69.39;-13778.44;4956958;28;45516;-92
2023/01/19 07:17:28;;;;;;;;;18.67;15.33;;;;;5.43;69.30;-13774.50;4988567;28;46423;-92
2023/01/19 07:19:53;;;;;;;;;14.33;13.00;;;;;5.79;69.58;-13780.84;4994936;28;45534;-92
2023/01/19 07:22:19;;;;;;;;;12.33;11.00;;;;;5.47;69.48;-13775.31;4979527;28;46195;-91
2023/01/19 07:24:44;;;;;;;;;8.33;7.33;;;;;5.29;69.72;-13772.09;5009689;28;45473;-91
2023/01/19 07:27:12;;;;;;;;;10.00;10.00;;;;;5.72;69.61;-13779.69;4986331;28;45865;-91
2023/01/19 07:29:38;;;;;;;;;9.67;8.67;;;;;5.63;69.34;-13778.00;4963728;28;45528;-91
2023/01/19 07:32:05;;;;;;;;;5.00;2.00;;;;;5.08;69.29;-13768.50;4987022;28;46006;-90
2023/01/19 07:34:30;;;;;;;;;10.33;9.00;;;;;5.68;69.11;-13778.97;4986127;28;45477;-91
2023/01/19 07:36:55;;;;;;;;;10.00;9.00;;;;;5.71;69.69;-13779.44;4965501;28;45315;-91
2023/01/19 07:39:21;;;;;;;;;8.67;7.67;;;;;5.44;69.59;-13774.78;4980276;28;46754;-88
2023/01/19 07:41:49;;;;;;;;;49.25;40.75;;;;;5.42;69.37;-13774.31;4973443;28;46101;-88
2023/01/19 07:44:15;;;;;;;;;7.67;7.67;;;;;5.55;69.54;-13776.56;4977916;28;45749;-88
2023/01/19 07:46:40;;;;;;;;;16.33;13.67;;;;;5.51;69.34;-13775.94;4957522;28;45401;-88
2023/01/19 07:49:06;;;;;;;;;11.00;9.67;;;;;4.67;69.62;-13761.16;4988475;28;45509;-88
2023/01/19 07:51:31;;;;;;;;;10.00;9.00;;;;;5.54;69.18;-13776.38;4994470;28;46313;-88
2023/01/19 07:53:57;;;;;;;;;9.00;9.00;;;;;5.38;69.76;-14102.28;4987587;28;45472;-88
2023/01/19 07:56:23;;;;;;;;;9.00;9.00;;;;;5.51;69.90;-14104.59;4973416;28;45459;-88
2023/01/19 07:58:51;;;;;;;;;12.00;11.00;;;;;5.89;69.52;-14111.41;4990950;28;45628;-88
2023/01/19 08:01:17;;;;;;;;;14.67;12.33;;;;;5.84;69.94;-14110.59;4955789;28;48335;-87
2023/01/19 08:03:42;;;;;;;;;12.67;9.00;;;;;5.45;69.37;-14103.56;4973369;28;45472;-88
2023/01/19 08:06:20;;;;;;;;;10.00;9.00;;;;;5.20;69.54;-14427.41;4972950;28;45565;-88
2023/01/19 08:08:45;;;;;;;;;10.00;9.00;;;;;6.00;69.44;-14442.31;4967038;28;45577;-88
2023/01/19 08:11:11;;;;;;;;;7.00;7.00;;;;;5.43;69.50;-14431.69;4973105;28;45419;-88
2023/01/19 08:13:36;;;;;;;;;10.00;9.00;;;;;5.99;69.29;-14442.03;4973222;28;45536;-86
2023/01/19 08:16:02;;;;;;;;;12.33;10.33;;;;;5.62;69.41;-14435.19;4973000;28;45733;-87
2023/01/19 08:18:27;;;;;;;;;12.33;11.00;;;;;5.18;69.60;-14427.13;4973553;28;45513;-87
2023/01/19 08:20:52;;;;;;;;;8.00;8.00;;;;;6.16;69.56;-14774.09;4983641;28;45445;-87
2023/01/19 08:23:18;;;;;;;;;8.33;8.33;;;;;5.64;69.16;-14435.59;4983569;28;45448;-88
2023/01/19 08:25:44;;;;;;;;;8.00;4.67;;;;;5.03;69.25;-14424.38;4988945;28;45874;-87
2023/01/19 08:28:13;;;;;;;;;9.00;7.67;;;;;5.05;69.39;-14424.75;4979464;28;45391;-88
2023/01/19 08:30:39;;;;;;;;;9.00;7.67;;;;;5.71;69.44;-14436.91;4982818;28;46373;-89
2023/01/19 08:33:07;;;;;;;;;9.00;9.00;;;;;5.95;69.12;-14441.28;4977882;28;45489;-89
2023/01/19 08:35:37;;;;;;;;;6.67;6.33;;;;;5.95;69.02;-14441.28;4964033;28;45453;-88
2023/01/19 08:38:03;;;;;;;;;8.33;8.33;;;;;5.78;68.66;-14438.16;4981160;28;45414;-88
2023/01/19 08:40:34;;;;;;;;;8.00;8.00;;;;;5.60;69.12;-14434.81;4990908;28;45537;-92
2023/01/19 08:43:06;;;;;;;;;11.67;10.00;;;;;6.43;68.95;-14450.19;4993468;28;45347;-92
2023/01/19 08:45:31;;;;;;;;;8.67;8.67;;;;;6.48;68.94;-14780.25;4986551;28;45563;-91
2023/01/19 08:48:00;;;;;;;;;11.67;9.33;;;;;6.26;68.39;-14776.06;4988963;28;45720;-91
2023/01/19 08:50:28;;;;;;;;;12.00;9.00;;;;;5.79;68.33;-14767.19;4977648;28;47487;-91
2023/01/19 08:53:03;;;;;;;;;9.33;8.00;;;;;6.02;68.00;-14442.63;4980725;28;45531;-90
2023/01/19 08:55:29;;;;;;;;;9.67;6.33;;;;;6.59;67.76;-14453.13;4986503;28;45482;-89
2023/01/19 08:57:56;;;;;;;;;17.67;16.67;;;;;6.51;68.24;-14451.81;4989727;28;45464;-92
2023/01/19 09:00:23;;;;;;;;;9.67;8.67;;;;;6.84;68.01;-14787.09;4959309;28;48116;-92
2023/01/19 09:02:49;;;;;;;;;13.00;11.00;;;;;6.87;67.56;-14458.34;4974276;28;45384;-89
2023/01/19 09:05:15;;;;;;;;;9.67;8.00;;;;;6.93;67.41;-14788.94;4978895;28;45378;-90
2023/01/19 09:07:44;;;;;;;;;10.67;8.33;;;;;6.40;67.69;-14778.69;4995961;28;45758;-91
2023/01/19 09:10:10;;;;;;;;;9.00;7.00;;;;;6.25;67.59;-14775.97;4961447;28;47184;-91
2023/01/19 09:12:35;;;;;;;;;10.33;6.00;;;;;7.11;67.32;-14792.34;4980800;28;45526;-92
2023/01/19 09:15:01;;;;;;;;;9.00;6.00;;;;;6.82;67.07;-14457.41;4958323;28;45850;-91
2023/01/19 09:17:26;;;;;;;;;9.67;8.00;;;;;6.75;66.40;-14456.19;4970656;28;45615;-91
2023/01/19 09:19:51;;;;;;;;;3.00;3.00;;;;;7.11;66.62;-14133.34;4958648;28;47563;-91
2023/01/19 09:22:17;;;;;;;;;10.67;6.00;;;;;7.09;66.75;-14132.97;4982305;28;45496;-89
2023/01/19 09:24:42;;;;;;;;;5.67;5.67;;;;;6.83;66.69;-14128.38;4973102;28;45745;-92
2023/01/19 09:27:07;;;;;;;;;12.00;9.00;;;;;7.10;66.73;-14133.25;4948461;28;45854;-93
2023/01/19 09:29:33;;;;;;;;;25.33;15.33;;;;;6.72;66.62;-14126.34;4960857;28;47173;-93
2023/01/19 09:31:58;;;;;;;;;10.00;10.00;;;;;6.81;66.59;-14128.00;4974333;28;45428;-95
2023/01/19 09:34:26;;;;;;;;;10.00;7.67;;;;;6.21;66.90;-14117.13;4988121;28;45305;-95
2023/01/19 09:36:52;;;;;;;;;12.33;11.00;;;;;6.19;67.06;-14116.75;4960118;28;45306;-94
2023/01/19 09:39:17;;;;;;;;;11.33;9.67;;;;;6.86;67.04;-14458.25;4965459;28;47076;-89
2023/01/19 09:41:51;;;;;;;;;9.00;9.00;;;;;6.82;66.91;-14128.19;4972090;28;45784;-88
2023/01/19 09:44:26;;;;;;;;;14.33;12.33;;;;;7.26;66.97;-14465.56;4990878;28;45388;-88
2023/01/19 09:46:51;;;;;;;;;10.33;10.33;;;;;7.07;66.80;-14132.59;4988357;28;46616;-88
2023/01/19 09:49:27;;;;;;;;;14.00;11.00;;;;;7.17;66.67;-14134.53;4980029;28;46130;-88
2023/01/19 09:51:53;;;;;;;;;12.67;10.00;;;;;7.01;66.82;-14460.91;4978441;28;45456;-87
2023/01/19 09:54:26;;;;;;;;;12.00;11.00;;;;;7.34;66.93;-14467.06;4963068;28;45510;-86
2023/01/19 09:56:52;;;;;;;;;12.00;10.67;;;;;7.03;66.70;-14461.38;4957214;28;45572;-87
2023/01/19 09:59:27;;;;;;;;;23.00;21.33;;;;;6.78;66.54;-14456.75;4957224;28;48136;-88
2023/01/19 10:01:59;;;;;;;;;14.00;13.00;;;;;7.44;66.71;-14468.88;4978699;28;45955;-87
2023/01/19 10:04:32;;;;;;;;;13.67;12.67;;;;;7.48;66.62;-14469.63;4956086;28;45452;-89
2023/01/19 10:07:42;;;;;;;;;13.67;11.00;;;;;7.47;66.28;-14139.88;4962394;28;45932;-86
2023/01/19 10:10:21;;;;;;;;;15.67;12.67;;;;;7.06;66.17;-14132.41;4983627;28;46160;-88
2023/01/19 10:12:55;;;;;;;;;19.33;18.00;;;;;7.53;66.11;-14470.56;5007799;28;45531;-87
2023/01/19 10:15:29;;;;;;;;;10.00;10.00;;;;;7.50;66.36;-14470.00;4982858;28;45475;-86
2023/01/19 10:18:10;;;;;;;;;10.00;10.00;;;;;7.35;66.38;-14467.34;4997717;28;45703;-87
2023/01/19 10:21:11;;;;;;;;;14.67;10.33;;;;;7.71;66.41;-14803.63;5000099;28;47068;-87
2023/01/19 10:23:52;;;;;;;;;18.00;17.00;;;;;7.78;65.98;-14475.22;4988450;28;45525;-87
2023/01/19 10:26:23;;;;;;;;;11.33;10.67;;;;;7.69;65.89;-14473.50;4985974;28;45512;-88
2023/01/19 10:28:53;;;;;;;;;12.33;11.67;;;;;7.29;65.82;-14795.75;4995022;28;45522;-86
2023/01/19 10:31:22;;;;;;;;;17.33;8.67;;;;;7.72;65.40;-14803.84;4998652;28;45558;-85
2023/01/19 10:33:51;;;;;;;;;15.33;14.33;;;;;8.02;65.85;-14809.66;4999837;28;45665;-86
2023/01/19 10:36:38;;;;;;;;;22.67;16.00;;;;;7.95;65.55;-14808.31;5008658;28;45728;-86
2023/01/19 10:39:05;;;;;;;;;18.33;12.00;;;;;8.14;65.44;-14811.81;5019163;28;45614;-87
2023/01/19 10:41:43;;;;;;;;;14.67;13.67;;;;;7.94;64.95;-14808.03;4985387;28;46487;-86
2023/01/19 10:44:09;;;;;;;;;18.67;14.00;;;;;8.18;64.94;-14482.59;4980688;28;45608;-86
2023/01/19 10:46:45;;;;;;;;;18.33;16.00;;;;;8.12;64.86;-14481.53;4975974;28;45512;-87
2023/01/19 10:49:36;;;;;;;;;15.67;15.00;;;;;8.17;65.56;-14812.41;4976665;28;45412;-86
2023/01/19 10:52:04;;;;;;;;;14.00;13.33;;;;;8.23;64.82;-14483.63;4971683;28;47166;-88
2023/01/19 10:54:31;;;;;;;;;15.00;13.67;;;;;7.54;64.54;-14470.84;4963109;28;45786;-86
2023/01/19 10:57:03;;;;;;;;;17.00;15.33;;;;;8.30;64.96;-14484.75;4972786;28;45431;-85
2023/01/19 10:59:43;;;;;;;;;19.00;16.00;;;;;8.29;64.63;-14154.56;4956948;28;45504;-87
2023/01/19 11:02:12;;;;;;;;;21.67;17.00;;;;;8.35;64.49;-14485.69;5034388;28;45548;-89
2023/01/19 11:04:37;;;;;;;;;19.00;13.00;;;;;8.41;64.37;-14486.84;4976330;28;45573;-87
2023/01/19 11:07:18;;;;;;;;;20.67;19.00;;;;;8.47;64.20;-14487.97;4977922;28;45399;-89
2023/01/19 11:09:43;;;;;;;;;19.00;19.00;;;;;8.13;63.95;-14481.72;5037844;28;45607;-89
2023/01/19 11:12:23;;;;;;;;;16.00;16.00;;;;;8.44;64.44;-14487.41;4985321;28;45536;-88
2023/01/19 11:14:50;;;;;;;;;21.33;18.00;;;;;8.58;64.24;-14490.06;4981167;28;45423;-88
2023/01/19 11:17:22;;;;;;;;;16.33;16.00;;;;;7.97;64.10;-14808.69;4985081;28;45719;-87
2023/01/19 11:19:57;;;;;;;;;18.00;15.67;;;;;8.68;64.04;-14822.03;4979556;28;45380;-88
2023/01/19 11:22:27;;;;;;;;;25.67;17.33;;;;;8.70;64.04;-14492.13;4971350;28;45526;-87
2023/01/19 11:24:58;;;;;;;;;22.33;21.67;;;;;8.75;63.95;-14823.38;4984742;28;45404;-87
2023/01/19 11:27:23;;;;;;;;;19.67;18.00;;;;;8.49;64.00;-14818.53;4982121;28;45570;-88
2023/01/19 11:30:00;;;;;;;;;21.00;18.67;;;;;8.82;63.50;-14494.41;4981568;28;45398;-89
2023/01/19 11:32:26;;;;;;;;;17.00;15.67;;;;;8.54;63.75;-14489.28;4981882;28;46386;-89
2023/01/19 11:34:51;;;;;;;;;15.00;14.00;;;;;8.82;63.94;-14494.50;4971474;28;46585;-88
2023/01/19 11:37:17;;;;;;;;;21.33;21.33;;;;;8.82;63.50;-14494.50;4952583;28;45395;-89
2023/01/19 11:39:45;;;;;;;;;18.33;17.00;;;;;8.74;63.59;-14162.56;4965899;28;45573;-85